createdAt,value
2018-07-25T00:01:29.464Z,83.40
2018-07-25T00:05:32.701Z,83.30
2018-07-25T00:09:35.933Z,84.10
2018-07-25T00:13:39.169Z,85.00
2018-07-25T00:17:42.417Z,86.40
2018-07-25T00:21:45.654Z,88.20
2018-07-25T00:25:48.902Z,88.90
2018-07-25T00:29:52.129Z,90.10
2018-07-25T00:33:55.369Z,90.30
2018-07-25T00:37:58.601Z,90.30
2018-07-25T00:42:01.849Z,90.90
2018-07-25T00:46:05.122Z,90.50
2018-07-25T00:50:08.385Z,90.90
2018-07-25T00:54:11.633Z,91.40
2018-07-25T00:58:14.880Z,91.50
2018-07-25T01:02:18.111Z,91.40
2018-07-25T01:06:21.350Z,91.30
2018-07-25T01:10:24.608Z,91.70
2018-07-25T01:14:28.522Z,91.80
2018-07-25T01:18:31.761Z,91.70
2018-07-25T01:22:34.993Z,91.80
2018-07-25T01:26:38.236Z,91.80
2018-07-25T01:30:41.473Z,92.00
2018-07-25T01:34:44.730Z,92.00
2018-07-25T01:38:47.956Z,92.00
2018-07-25T01:42:51.193Z,92.20
2018-07-25T01:46:54.523Z,92.40
2018-07-25T01:50:58.065Z,92.70
2018-07-25T01:55:01.303Z,92.60
2018-07-25T01:59:04.553Z,93.10
2018-07-25T02:03:07.845Z,93.20
2018-07-25T02:07:11.074Z,93.40
2018-07-25T02:11:14.298Z,93.30
2018-07-25T02:15:17.529Z,93.00
2018-07-25T02:19:20.785Z,93.30
2018-07-25T02:23:24.001Z,93.50
2018-07-25T02:27:27.241Z,93.40
2018-07-25T02:35:33.493Z,93.20
2018-07-25T02:39:36.746Z,92.70
2018-07-25T02:43:40.005Z,93.10
2018-07-25T02:47:43.242Z,93.20
2018-07-25T02:51:46.503Z,93.30
2018-07-25T02:55:49.725Z,93.70
2018-07-25T02:59:52.950Z,93.60
2018-07-25T03:03:56.178Z,93.60
2018-07-25T03:07:59.399Z,94.00
2018-07-25T03:12:02.629Z,93.80
2018-07-25T03:16:07.057Z,93.60
2018-07-25T03:20:10.288Z,93.70
2018-07-25T03:24:13.559Z,93.80
2018-07-25T03:28:16.774Z,94.10
2018-07-25T03:32:20.916Z,94.20
2018-07-25T03:36:24.185Z,93.90
2018-07-25T03:40:27.409Z,94.00
2018-07-25T03:44:30.657Z,94.10
2018-07-25T03:48:34.739Z,94.10
2018-07-25T03:52:38.014Z,94.30
2018-07-25T03:56:41.252Z,94.20
2018-07-25T04:00:44.636Z,94.20
2018-07-25T04:04:47.903Z,94.30
2018-07-25T04:08:51.154Z,94.40
2018-07-25T04:12:55.633Z,94.30
2018-07-25T04:16:58.885Z,94.00
2018-07-25T04:21:02.154Z,93.90
2018-07-25T04:25:05.675Z,94.00
2018-07-25T04:29:08.910Z,93.90
2018-07-25T04:33:12.121Z,94.20
2018-07-25T04:37:15.360Z,93.90
2018-07-25T04:41:18.642Z,93.70
2018-07-25T04:45:22.351Z,93.50
2018-07-25T04:49:25.637Z,93.50
2018-07-25T04:53:28.906Z,93.40
2018-07-25T04:57:32.285Z,93.20
2018-07-25T05:01:35.545Z,92.90
2018-07-25T05:05:39.445Z,92.80
2018-07-25T05:09:42.694Z,92.40
2018-07-25T05:13:45.941Z,92.00
2018-07-25T05:17:49.199Z,92.00
2018-07-25T05:21:52.525Z,92.20
2018-07-25T05:25:55.830Z,92.10
2018-07-25T05:29:59.077Z,92.10
2018-07-25T05:34:02.317Z,92.00
2018-07-25T05:38:05.619Z,91.50
2018-07-25T05:42:08.922Z,91.30
2018-07-25T05:46:12.216Z,91.10
2018-07-25T05:50:15.460Z,90.90
2018-07-25T05:54:18.707Z,90.30
2018-07-25T05:58:22.042Z,90.20
2018-07-25T06:02:25.305Z,90.20
2018-07-25T06:06:28.562Z,90.00
2018-07-25T06:10:31.817Z,89.90
2018-07-25T06:14:35.123Z,90.00
2018-07-25T06:18:38.353Z,89.80
2018-07-25T06:22:41.606Z,89.50
2018-07-25T06:26:45.349Z,89.10
2018-07-25T06:30:48.602Z,88.90
2018-07-25T06:34:51.859Z,88.00
2018-07-25T06:38:55.101Z,87.90
2018-07-25T06:42:58.336Z,88.00
2018-07-25T06:47:01.598Z,88.00
2018-07-25T06:51:04.928Z,88.70
2018-07-25T06:55:08.217Z,88.20
2018-07-25T06:59:11.469Z,88.10
2018-07-25T07:03:14.707Z,87.20
2018-07-25T07:07:18.016Z,88.60
2018-07-25T07:11:21.284Z,88.60
2018-07-25T07:15:24.569Z,87.80
2018-07-25T07:19:27.969Z,88.60
2018-07-25T07:23:31.206Z,87.80
2018-07-25T07:27:34.477Z,88.00
2018-07-25T07:31:37.758Z,87.70
2018-07-25T07:35:41.117Z,86.50
2018-07-25T07:39:44.432Z,85.60
2018-07-25T07:43:47.666Z,84.80
2018-07-25T07:47:50.901Z,84.50
2018-07-25T07:51:54.188Z,83.20
2018-07-25T07:55:57.589Z,82.80
2018-07-25T08:00:00.878Z,80.40
2018-07-25T08:04:04.286Z,80.40
2018-07-25T08:08:07.588Z,80.10
2018-07-25T08:12:10.865Z,79.90
2018-07-25T08:16:14.179Z,77.10
2018-07-25T08:20:17.417Z,76.10
2018-07-25T08:24:20.739Z,78.20
2018-07-25T08:28:24.026Z,76.70
2018-07-25T08:32:27.281Z,77.10
2018-07-25T08:36:30.559Z,77.10
2018-07-25T08:40:33.885Z,76.50
2018-07-25T08:44:37.143Z,73.80
2018-07-25T08:48:40.626Z,72.30
2018-07-25T08:52:43.971Z,71.40
2018-07-25T08:56:47.172Z,72.40
2018-07-25T09:00:50.680Z,70.50
2018-07-25T09:04:53.893Z,69.70
2018-07-25T09:08:57.125Z,68.70
2018-07-25T09:13:00.438Z,68.00
2018-07-25T09:17:03.659Z,67.70
2018-07-25T09:21:07.033Z,66.20
2018-07-25T09:25:10.321Z,64.80
2018-07-25T09:29:13.538Z,62.20
2018-07-25T09:33:16.837Z,60.50
2018-07-25T09:37:20.118Z,58.80
2018-07-25T09:41:23.418Z,59.30
2018-07-25T09:45:26.681Z,57.40
2018-07-25T09:49:29.930Z,55.40
2018-07-25T09:53:33.210Z,54.50
2018-07-25T09:57:36.802Z,50.20
2018-07-25T10:01:40.074Z,50.70
2018-07-25T10:05:43.412Z,48.50
2018-07-25T10:09:46.666Z,45.40
2018-07-25T10:13:50.350Z,45.90
2018-07-25T10:17:53.601Z,46.20
2018-07-25T10:21:56.862Z,44.20
2018-07-25T10:26:00.258Z,46.70
2018-07-25T10:30:03.697Z,46.00
2018-07-25T10:34:07.109Z,46.10
2018-07-25T10:38:10.401Z,44.60
2018-07-25T10:42:13.651Z,45.60
2018-07-25T10:46:16.885Z,45.20
2018-07-25T10:50:20.137Z,44.60
2018-07-25T10:54:23.401Z,44.20
2018-07-25T10:58:26.651Z,42.40
2018-07-25T11:02:29.934Z,40.50
2018-07-25T11:06:33.202Z,39.20
2018-07-25T11:10:36.596Z,37.80
2018-07-25T11:14:39.872Z,38.50
2018-07-25T11:18:43.150Z,38.30
2018-07-25T11:22:46.449Z,37.80
2018-07-25T11:26:49.693Z,40.10
2018-07-25T11:30:52.929Z,37.30
2018-07-25T11:34:56.181Z,34.80
2018-07-25T11:38:59.436Z,34.20
2018-07-25T11:43:02.706Z,36.30
2018-07-25T11:47:06.106Z,35.80
2018-07-25T11:51:09.380Z,33.70
2018-07-25T11:55:12.615Z,33.10
2018-07-25T11:59:15.896Z,31.80
2018-07-25T12:03:19.160Z,32.60
2018-07-25T12:07:22.577Z,31.50
2018-07-25T12:11:25.838Z,29.80
2018-07-25T12:15:29.102Z,30.10
2018-07-25T12:19:32.416Z,30.30
2018-07-25T12:23:35.727Z,30.00
2018-07-25T12:27:38.986Z,30.00
2018-07-25T12:31:42.295Z,28.40
2018-07-25T12:35:45.557Z,28.30
2018-07-25T12:39:48.819Z,30.40
2018-07-25T12:43:52.074Z,31.60
2018-07-25T12:47:55.315Z,31.00
2018-07-25T12:51:58.557Z,27.50
2018-07-25T12:56:01.905Z,27.90
2018-07-25T13:00:06.958Z,30.00
2018-07-25T13:04:10.349Z,30.10
2018-07-25T13:08:13.602Z,31.20
2018-07-25T13:12:17.116Z,30.80
2018-07-25T13:16:20.382Z,32.30
2018-07-25T13:20:23.745Z,30.10
2018-07-25T13:24:26.981Z,29.70
2018-07-25T13:28:30.234Z,31.50
2018-07-25T13:32:33.500Z,32.90
2018-07-25T13:36:37.773Z,35.60
2018-07-25T13:40:41.069Z,35.50
2018-07-25T13:44:44.290Z,36.60
2018-07-25T13:48:47.534Z,37.70
2018-07-25T13:52:50.776Z,38.60
2018-07-25T13:56:54.034Z,39.00
2018-07-25T14:00:57.269Z,40.30
2018-07-25T14:05:00.521Z,39.20
2018-07-25T14:09:05.303Z,40.80
2018-07-25T14:13:08.549Z,40.50
2018-07-25T14:17:11.825Z,38.80
2018-07-25T14:21:16.006Z,40.00
2018-07-25T14:25:19.279Z,39.90
2018-07-25T14:29:22.605Z,40.80
2018-07-25T14:33:25.818Z,39.70
2018-07-25T14:37:29.083Z,36.50
2018-07-25T14:41:32.376Z,35.30
2018-07-25T14:45:35.630Z,34.50
2018-07-25T14:49:38.905Z,35.00
2018-07-25T14:53:42.177Z,36.00
2018-07-25T14:57:45.445Z,36.60
2018-07-25T15:01:48.711Z,35.30
2018-07-25T15:05:51.998Z,35.10
2018-07-25T15:09:55.275Z,34.90
2018-07-25T15:13:58.590Z,33.20
2018-07-25T15:18:01.841Z,32.90
2018-07-25T15:22:05.223Z,33.40
2018-07-25T15:26:08.525Z,33.00
2018-07-25T15:30:13.896Z,32.90
2018-07-25T15:34:18.238Z,33.00
2018-07-25T15:38:21.553Z,33.30
2018-07-25T15:42:24.817Z,34.60
2018-07-25T15:46:28.212Z,34.50
2018-07-25T15:50:31.581Z,35.50
2018-07-25T15:54:34.845Z,36.00
2018-07-25T15:58:38.086Z,36.60
2018-07-25T16:02:41.377Z,37.80
2018-07-25T16:06:45.042Z,37.60
2018-07-25T16:10:48.297Z,37.30
2018-07-25T16:14:51.534Z,37.70
2018-07-25T16:18:55.095Z,37.70
2018-07-25T16:22:58.384Z,37.60
2018-07-25T16:27:02.321Z,37.80
2018-07-25T16:31:05.782Z,37.50
2018-07-25T16:35:09.094Z,38.40
2018-07-25T16:39:15.027Z,37.20
2018-07-25T16:43:18.324Z,38.90
2018-07-25T16:47:21.894Z,37.80
2018-07-25T16:51:25.191Z,38.00
2018-07-25T16:55:28.485Z,38.70
2018-07-25T16:59:31.779Z,39.40
2018-07-25T17:03:35.040Z,39.70
2018-07-25T17:07:38.317Z,39.20
2018-07-25T17:11:41.814Z,40.40
2018-07-25T17:15:45.051Z,40.50
2018-07-25T17:19:48.350Z,42.10
2018-07-25T17:23:51.595Z,43.70
2018-07-25T17:27:54.868Z,44.70
2018-07-25T17:31:59.178Z,43.70
2018-07-25T17:36:02.430Z,45.10
2018-07-25T17:40:06.164Z,45.10
2018-07-25T17:44:09.971Z,44.70
2018-07-25T17:48:13.341Z,44.10
2018-07-25T17:52:17.085Z,44.50
2018-07-25T17:56:20.410Z,45.80
2018-07-25T18:00:23.717Z,46.30
2018-07-25T18:04:27.054Z,47.30
2018-07-25T18:08:30.545Z,48.30
2018-07-25T18:12:33.965Z,48.60
2018-07-25T18:16:37.257Z,48.90
2018-07-25T18:20:42.454Z,49.20
2018-07-25T18:24:45.797Z,48.90
2018-07-25T18:28:49.190Z,49.60
2018-07-25T18:32:52.650Z,48.70
2018-07-25T18:36:56.209Z,48.60
2018-07-25T18:41:04.345Z,49.70
2018-07-25T18:45:08.793Z,50.00
2018-07-25T18:49:12.543Z,51.70
2018-07-25T18:53:17.386Z,52.60
2018-07-25T18:57:27.864Z,53.30
2018-07-25T19:01:31.320Z,54.60
2018-07-25T19:05:34.697Z,55.70
2018-07-25T19:09:37.929Z,56.50
2018-07-25T19:13:45.399Z,57.90
2018-07-25T19:17:48.625Z,57.40
2018-07-25T19:21:51.902Z,58.30
2018-07-25T19:25:55.221Z,59.00
2018-07-25T19:29:58.515Z,59.70
2018-07-25T19:34:01.761Z,59.70
2018-07-25T19:38:11.479Z,60.20
2018-07-25T19:42:15.187Z,60.70
2018-07-25T19:46:24.323Z,61.30
2018-07-25T19:50:33.936Z,61.70
2018-07-25T19:54:37.336Z,61.90
2018-07-25T19:58:40.559Z,62.20
2018-07-25T20:02:46.796Z,61.70
2018-07-25T20:06:53.574Z,61.60
2018-07-25T20:10:59.929Z,62.30
2018-07-25T20:15:12.399Z,61.60
2018-07-25T20:19:17.957Z,61.50
2018-07-25T20:23:27.155Z,61.50
2018-07-25T20:27:31.961Z,61.70
2018-07-25T20:31:35.658Z,61.30
2018-07-25T20:35:43.107Z,61.60
2018-07-25T20:39:51.135Z,61.80
2018-07-25T20:43:56.854Z,62.20
2018-07-25T20:48:03.886Z,62.80
2018-07-25T20:52:10.297Z,63.30
2018-07-25T20:56:15.734Z,63.60
2018-07-25T21:00:24.874Z,64.00
2018-07-25T21:04:28.169Z,64.50
2018-07-25T21:08:31.467Z,64.90
2018-07-25T21:12:34.752Z,65.40
2018-07-25T21:16:38.537Z,66.00
2018-07-25T21:20:41.792Z,67.60
2018-07-25T21:24:45.141Z,67.60
2018-07-25T21:28:48.390Z,67.70
2018-07-25T21:32:51.632Z,68.00
2018-07-25T21:36:58.244Z,68.40
2018-07-25T21:41:05.840Z,68.90
2018-07-25T21:45:09.181Z,69.00
2018-07-25T21:49:15.278Z,69.30
2018-07-25T21:53:18.605Z,69.80
2018-07-25T21:57:21.873Z,70.40
2018-07-25T22:01:25.731Z,70.80
2018-07-25T22:05:28.977Z,71.40
2018-07-25T22:09:32.257Z,71.20
2018-07-25T22:13:35.510Z,71.80
2018-07-25T22:17:39.034Z,72.30
2018-07-25T22:21:42.338Z,73.00
2018-07-25T22:25:45.573Z,73.40
2018-07-25T22:29:48.833Z,74.00
2018-07-25T22:33:52.070Z,74.30
2018-07-25T22:37:55.409Z,75.00
2018-07-25T22:41:58.540Z,75.90
2018-07-25T22:46:01.804Z,76.00
2018-07-25T22:50:05.170Z,76.90
2018-07-25T22:54:08.389Z,77.90
2018-07-25T22:58:11.632Z,79.10
2018-07-25T23:02:14.881Z,78.90
2018-07-25T23:06:18.142Z,79.20
2018-07-25T23:10:21.465Z,80.10
2018-07-25T23:14:24.767Z,81.10
2018-07-25T23:18:28.661Z,81.30
2018-07-25T23:22:54.336Z,82.00
2018-07-25T23:26:57.564Z,83.10
2018-07-25T23:31:00.804Z,83.30
2018-07-25T23:35:04.056Z,83.30
2018-07-25T23:39:08.552Z,82.80
2018-07-25T23:43:11.800Z,83.40
2018-07-25T23:51:18.020Z,84.40
2018-07-25T23:55:21.269Z,84.90
2018-07-25T23:59:24.505Z,85.40
